Time;durP1;ratioP1;P1;durP2;ratioP2;P2;SDS_P1;SDS_P2;PMS_P1;PMS_P2;Temp;Humidity;BMP_temperature;BMP_pressure;BME280_temperature;BME280_humidity;BME280_pressure;Samples;Min_cycle;Max_cycle;Signal;HPM_P1;HPM_P2
2022/11/28 00:02:19;;;;;;;128.93;50.90;;;;;;;2.27;100.00;100927.03;4203881;28;21260;-66
2022/11/28 00:04:49;;;;;;;135.40;54.47;;;;;;;2.10;100.00;100931.38;4223005;28;20290;-66
2022/11/28 00:07:16;;;;;;;124.30;48.83;;;;;;;2.13;100.00;100926.88;4195722;28;23619;-66
2022/11/28 00:09:43;;;;;;;129.63;52.77;;;;;;;2.19;100.00;100923.97;4203863;28;20643;-67
2022/11/28 00:12:09;;;;;;;125.03;51.00;;;;;;;2.24;100.00;100927.19;4216354;28;20228;-65
2022/11/28 00:14:36;;;;;;;126.17;50.97;;;;;;;2.27;100.00;100921.75;4208512;28;20373;-67
2022/11/28 00:17:02;;;;;;;134.63;49.83;;;;;;;2.26;100.00;100920.94;4208272;28;20518;-66
2022/11/28 00:19:29;;;;;;;124.20;49.73;;;;;;;2.28;100.00;100918.22;4212530;28;20240;-67
2022/11/28 00:21:56;;;;;;;127.33;48.40;;;;;;;2.30;100.00;100917.22;4205465;28;22419;-66
2022/11/28 00:24:22;;;;;;;119.70;47.97;;;;;;;2.31;100.00;100923.31;4211507;28;20232;-67
2022/11/28 00:26:48;;;;;;;137.03;52.67;;;;;;;2.29;100.00;100922.53;4204726;28;23559;-66
2022/11/28 00:29:15;;;;;;;125.77;50.80;;;;;;;2.25;100.00;100921.03;4213230;28;20251;-68
2022/11/28 00:31:42;;;;;;;122.53;50.43;;;;;;;2.25;100.00;100913.16;4208480;28;21223;-69
2022/11/28 00:34:11;;;;;;;125.73;49.30;;;;;;;2.25;100.00;100918.41;4209397;28;20300;-65
2022/11/28 00:36:38;;;;;;;137.43;51.67;;;;;;;2.28;100.00;100918.22;4210823;28;20251;-67
2022/11/28 00:39:05;;;;;;;130.83;51.10;;;;;;;2.28;100.00;100918.22;4204376;28;22250;-67
2022/11/28 00:41:35;;;;;;;146.20;54.83;;;;;;;2.22;100.00;100918.53;4188615;28;21133;-66
2022/11/28 00:44:01;;;;;;;117.80;50.10;;;;;;;2.22;100.00;100921.16;4205961;28;21702;-68
2022/11/28 00:46:28;;;;;;;121.83;52.23;;;;;;;2.26;100.00;100912.22;4211702;28;21844;-67
2022/11/28 00:48:57;;;;;;;155.30;56.47;;;;;;;2.18;100.00;100911.75;4210063;28;20653;-66
2022/11/28 00:51:27;;;;;;;124.83;51.50;;;;;;;2.15;100.00;100914.53;4204543;28;20232;-66
2022/11/28 00:53:56;;;;;;;127.70;49.80;;;;;;;2.17;100.00;100912.69;4194157;28;20340;-66
2022/11/28 00:56:24;;;;;;;126.03;49.73;;;;;;;2.22;100.00;100913.28;4210327;28;20459;-68
2022/11/28 00:58:51;;;;;;;129.43;50.03;;;;;;;2.26;100.00;100909.59;4207518;28;20699;-69
2022/11/28 01:01:21;;;;;;;116.67;49.27;;;;;;;2.30;100.00;100911.97;4213986;28;23681;-67
2022/11/28 01:03:49;;;;;;;119.20;48.83;;;;;;;2.30;100.00;100906.72;4214263;28;20275;-68
2022/11/28 01:06:20;;;;;;;125.10;50.43;;;;;;;2.31;100.00;100905.78;4212817;28;20346;-66
2022/11/28 01:08:47;;;;;;;121.47;49.23;;;;;;;2.30;100.00;100905.88;4213450;28;22085;-65
2022/11/28 01:11:14;;;;;;;112.13;47.50;;;;;;;2.32;100.00;100904.03;4213553;28;21888;-67
2022/11/28 01:13:40;;;;;;;137.57;53.30;;;;;;;2.33;100.00;100900.44;4216875;28;20240;-66
2022/11/28 01:16:08;;;;;;;131.87;52.07;;;;;;;2.30;100.00;100898.00;4219283;28;21243;-67
2022/11/28 01:18:35;;;;;;;136.97;52.30;;;;;;;2.31;100.00;100899.69;4207162;28;20250;-65
2022/11/28 01:21:02;;;;;;;133.13;52.10;;;;;;;2.27;100.00;100901.63;4210033;28;20248;-66
2022/11/28 01:23:28;;;;;;;119.30;48.50;;;;;;;2.28;100.00;100903.31;4219574;28;20246;-68
2022/11/28 01:25:55;;;;;;;125.13;48.23;;;;;;;2.30;100.00;100904.09;4226698;28;23715;-67
2022/11/28 01:28:22;;;;;;;119.37;47.60;;;;;;;2.34;100.00;100902.13;4216664;28;20610;-66
2022/11/28 01:30:48;;;;;;;122.27;49.33;;;;;;;2.31;100.00;100891.81;4219284;28;20396;-66
2022/11/28 01:33:15;;;;;;;123.90;49.23;;;;;;;2.36;100.00;100892.41;4217766;28;20237;-68
2022/11/28 01:35:42;;;;;;;130.60;48.40;;;;;;;2.38;100.00;100889.69;4218694;28;20235;-68
2022/11/28 01:38:08;;;;;;;121.77;48.70;;;;;;;2.42;100.00;100886.00;4218897;28;20228;-66
2022/11/28 01:40:43;;;;;;;132.70;52.63;;;;;;;2.38;100.00;100885.28;4217881;28;20290;-68
2022/11/28 01:43:10;;;;;;;121.13;48.43;;;;;;;2.33;100.00;100880.28;4205898;28;20238;-68
2022/11/28 01:45:38;;;;;;;119.00;49.93;;;;;;;2.33;100.00;100879.44;4217405;28;25224;-66
2022/11/28 01:48:08;;;;;;;118.43;47.17;;;;;;;2.32;100.00;100872.50;4218678;28;20323;-67
2022/11/28 01:50:35;;;;;;;118.70;47.70;;;;;;;2.35;100.00;100876.75;4204211;28;22186;-67
2022/11/28 01:53:05;;;;;;;118.60;49.33;;;;;;;2.37;100.00;100867.00;4210283;28;20236;-67
2022/11/28 01:55:37;;;;;;;126.10;48.37;;;;;;;2.34;100.00;100865.38;4197752;28;21351;-68
2022/11/28 01:58:03;;;;;;;124.23;49.20;;;;;;;2.29;100.00;100863.03;4208062;28;20234;-66
2022/11/28 02:00:30;;;;;;;124.57;47.37;;;;;;;2.29;100.00;100856.88;4221977;28;20278;-68
2022/11/28 02:03:22;;;;;;;143.83;52.97;;;;;;;2.27;100.00;100858.75;4208641;28;20324;-68
2022/11/28 02:05:51;;;;;;;131.63;51.10;;;;;;;2.19;100.00;100855.69;4226656;28;20240;-65
2022/11/28 02:08:17;;;;;;;134.63;50.40;;;;;;;2.15;100.00;100849.75;4192474;28;21173;-65
2022/11/28 02:11:16;;;;;;;128.53;52.53;;;;;;;2.21;100.00;100848.59;4202273;28;21863;-71
2022/11/28 02:13:55;;;;;;;134.37;50.30;;;;;;;2.10;100.00;100849.13;4212712;28;20599;-65
2022/11/28 02:16:31;;;;;;;143.50;54.60;;;;;;;1.96;100.00;100847.22;4206335;28;20430;-68
2022/11/28 02:19:12;;;;;;;141.67;54.60;;;;;;;1.79;100.00;100844.66;4207527;28;20224;-65
2022/11/28 02:22:01;;;;;;;152.90;55.33;;;;;;;1.84;100.00;100842.63;4209435;28;23776;-67
2022/11/28 02:24:40;;;;;;;159.13;58.40;;;;;;;1.87;100.00;100835.47;4221492;28;21340;-65
2022/11/28 02:27:22;;;;;;;138.83;55.40;;;;;;;1.89;100.00;100838.00;4191444;28;21447;-66
2022/11/28 02:30:11;;;;;;;142.23;54.83;;;;;;;1.77;100.00;100841.25;4209069;28;20421;-65
2022/11/28 02:32:46;;;;;;;145.70;57.83;;;;;;;1.64;100.00;100834.00;4202677;28;20309;-67
2022/11/28 02:35:49;;;;;;;137.77;53.40;;;;;;;1.66;100.00;100834.78;4197218;28;20426;-66
2022/11/28 02:38:46;;;;;;;143.70;53.80;;;;;;;1.64;100.00;100831.38;4223508;28;20405;-68
2022/11/28 02:41:21;;;;;;;141.17;52.67;;;;;;;1.74;100.00;100838.78;4222688;28;21253;-66
2022/11/28 02:44:09;;;;;;;137.53;52.53;;;;;;;1.79;100.00;100836.78;4212300;28;21510;-66
2022/11/28 02:46:57;;;;;;;140.00;53.57;;;;;;;1.78;100.00;100829.81;4199317;28;20233;-65
2022/11/28 02:49:46;;;;;;;128.00;51.03;;;;;;;1.76;100.00;100831.69;4211092;28;20317;-66
2022/11/28 02:52:21;;;;;;;135.87;50.47;;;;;;;1.78;100.00;100833.31;4215824;28;20234;-65
2022/11/28 02:54:49;;;;;;;136.77;52.47;;;;;;;1.83;100.00;100830.44;4206794;28;21537;-67
2022/11/28 02:57:15;;;;;;;129.73;50.33;;;;;;;1.85;100.00;100825.94;4197166;28;20602;-66
2022/11/28 02:59:41;;;;;;;129.53;50.90;;;;;;;1.94;100.00;100820.22;4205817;28;20239;-67
2022/11/28 03:02:29;;;;;;;128.73;50.40;;;;;;;1.92;100.00;100824.72;4207572;28;20237;-66
2022/11/28 03:05:03;;;;;;;121.07;48.83;;;;;;;1.92;100.00;100816.84;4206907;28;21172;-67
2022/11/28 03:07:55;;;;;;;130.63;51.17;;;;;;;1.89;100.00;100828.34;4190582;28;20239;-66
2022/11/28 03:10:35;;;;;;;120.97;49.50;;;;;;;1.93;100.00;100817.69;4197611;28;22704;-67
2022/11/28 03:13:37;;;;;;;123.30;49.50;;;;;;;1.89;100.00;100822.25;4202534;28;20299;-67
2022/11/28 03:16:26;;;;;;;121.20;48.23;;;;;;;1.84;100.00;100819.00;4194797;28;20759;-67
2022/11/28 03:19:21;;;;;;;133.13;51.13;;;;;;;1.71;100.00;100817.94;4204243;28;20510;-66
2022/11/28 03:22:12;;;;;;;117.47;48.03;;;;;;;1.75;100.00;100811.63;4205017;28;20338;-66
2022/11/28 03:24:50;;;;;;;133.40;50.87;;;;;;;1.73;100.00;100809.06;4217322;28;20400;-67
2022/11/28 03:27:22;;;;;;;128.83;50.23;;;;;;;1.79;100.00;100815.78;4179332;28;22114;-67
2022/11/28 03:29:52;;;;;;;134.50;51.10;;;;;;;1.65;100.00;100812.09;4203208;28;21820;-67
2022/11/28 03:32:23;;;;;;;142.03;53.73;;;;;;;1.61;100.00;100813.16;4188772;28;21370;-67
2022/11/28 03:34:54;;;;;;;136.40;51.97;;;;;;;1.53;100.00;100820.59;4195752;28;20303;-67
2022/11/28 03:37:26;;;;;;;142.17;51.13;;;;;;;1.51;100.00;100817.19;4183332;28;21187;-66
2022/11/28 03:39:58;;;;;;;135.10;52.57;;;;;;;1.28;100.00;100805.22;4190889;28;22059;-68
2022/11/28 03:42:28;;;;;;;134.17;51.67;;;;;;;1.13;100.00;100814.72;4199343;28;23158;-68
2022/11/28 03:45:07;;;;;;;144.00;52.23;;;;;;;1.17;100.00;100810.16;4195268;28;21222;-66
2022/11/28 03:47:37;;;;;;;138.43;51.97;;;;;;;1.24;100.00;100806.31;4182688;28;20229;-68
2022/11/28 03:50:07;;;;;;;151.13;53.10;;;;;;;1.33;100.00;100807.63;4186608;28;21793;-67
2022/11/28 03:52:40;;;;;;;142.10;53.83;;;;;;;1.47;100.00;100810.41;4197186;28;20409;-68
2022/11/28 03:55:12;;;;;;;133.40;50.43;;;;;;;1.53;100.00;100810.09;4194148;28;20236;-65
2022/11/28 03:57:43;;;;;;;129.60;50.10;;;;;;;1.63;100.00;100806.06;4197227;28;20496;-67
2022/11/28 04:00:11;;;;;;;127.43;48.60;;;;;;;1.72;100.00;100812.63;4191035;28;20247;-66
2022/11/28 04:03:06;;;;;;;119.57;47.57;;;;;;;1.79;100.00;100810.53;4200610;28;21498;-68
2022/11/28 04:05:48;;;;;;;137.70;49.30;;;;;;;1.82;100.00;100813.00;4198921;28;20273;-68
2022/11/28 04:08:26;;;;;;;126.23;47.03;;;;;;;1.86;100.00;100804.03;4198081;28;20286;-68
2022/11/28 04:11:03;;;;;;;125.53;47.90;;;;;;;1.85;100.00;100813.69;4202902;28;20244;-68
2022/11/28 04:13:37;;;;;;;127.30;47.67;;;;;;;1.91;100.00;100807.25;4183298;28;20414;-66
2022/11/28 04:16:12;;;;;;;127.43;49.13;;;;;;;1.90;100.00;100808.22;4188220;28;20236;-66
2022/11/28 04:18:49;;;;;;;116.03;46.10;;;;;;;1.92;100.00;100805.47;4189780;28;20232;-68
2022/11/28 04:21:27;;;;;;;130.37;48.77;;;;;;;1.98;100.00;100799.94;4188099;28;20702;-66
2022/11/28 04:23:56;;;;;;;132.37;50.77;;;;;;;1.99;100.00;100799.84;4206593;28;20236;-67
2022/11/28 04:26:27;;;;;;;133.47;50.30;;;;;;;1.95;100.00;100795.69;4195158;28;20227;-67
2022/11/28 04:28:54;;;;;;;114.57;45.50;;;;;;;1.97;100.00;100799.09;4199991;28;20252;-67
2022/11/28 04:31:21;;;;;;;129.03;48.87;;;;;;;1.95;100.00;100797.47;4203537;28;21702;-67
2022/11/28 04:33:52;;;;;;;126.43;46.93;;;;;;;1.93;100.00;100797.53;4208262;28;20557;-67
2022/11/28 04:36:19;;;;;;;119.60;46.20;;;;;;;2.04;100.00;100795.19;4192685;28;20255;-68
2022/11/28 04:38:53;;;;;;;132.07;48.70;;;;;;;2.00;100.00;100783.16;4194196;28;22372;-68
2022/11/28 04:41:26;;;;;;;128.00;50.07;;;;;;;1.75;100.00;100788.00;4197407;28;23026;-67
2022/11/28 04:43:59;;;;;;;136.37;49.10;;;;;;;1.60;100.00;100785.25;4186005;28;20241;-66
2022/11/28 04:46:32;;;;;;;130.27;50.43;;;;;;;1.39;100.00;100794.22;4206626;28;21059;-66
2022/11/28 04:48:59;;;;;;;139.73;48.90;;;;;;;1.27;100.00;100788.66;4201942;28;22707;-67
2022/11/28 04:51:35;;;;;;;136.47;50.33;;;;;;;1.33;100.00;100791.91;4203616;28;20232;-65
2022/11/28 04:54:13;;;;;;;126.20;47.97;;;;;;;1.50;100.00;100796.28;4199206;28;22277;-66
2022/11/28 04:56:44;;;;;;;137.00;46.87;;;;;;;1.53;100.00;100793.53;4199978;28;22593;-65
2022/11/28 04:59:12;;;;;;;126.50;48.03;;;;;;;1.50;100.00;100794.53;4196662;28;20240;-66
2022/11/28 05:01:40;;;;;;;128.83;50.13;;;;;;;1.46;100.00;100792.97;4204177;28;20263;-68
2022/11/28 05:04:07;;;;;;;141.83;49.37;;;;;;;1.44;100.00;100800.06;4207621;28;20232;-65
2022/11/28 05:06:35;;;;;;;119.97;46.70;;;;;;;1.51;100.00;100796.22;4192318;28;21992;-65
2022/11/28 05:09:01;;;;;;;138.37;48.13;;;;;;;1.37;100.00;100799.53;4197574;28;21228;-67
2022/11/28 05:11:28;;;;;;;121.03;47.17;;;;;;;1.37;100.00;100791.66;4223345;28;20314;-66
2022/11/28 05:13:55;;;;;;;133.47;49.87;;;;;;;1.33;100.00;100797.13;4181422;28;21141;-68
2022/11/28 05:16:21;;;;;;;133.03;47.97;;;;;;;1.25;100.00;100801.00;4209023;28;20604;-66
2022/11/28 05:18:48;;;;;;;138.43;48.77;;;;;;;1.16;100.00;100800.59;4206467;28;20315;-66
2022/11/28 05:21:15;;;;;;;136.73;49.70;;;;;;;1.10;100.00;100796.53;4182962;28;22042;-66
2022/11/28 05:23:42;;;;;;;150.13;52.33;;;;;;;1.12;100.00;100799.91;4206729;28;20231;-67
2022/11/28 05:26:12;;;;;;;136.57;50.03;;;;;;;1.37;100.00;100793.44;4183410;28;20251;-68
2022/11/28 05:28:45;;;;;;;148.30;51.97;;;;;;;1.34;100.00;100791.00;4226136;28;22409;-65
2022/11/28 05:31:12;;;;;;;132.33;47.00;;;;;;;1.44;100.00;100794.81;4196866;28;20229;-67
2022/11/28 05:33:39;;;;;;;137.43;50.63;;;;;;;1.46;100.00;100795.59;4210480;28;20323;-68
2022/11/28 05:36:10;;;;;;;133.70;47.57;;;;;;;1.41;100.00;100795.00;4202297;28;20766;-66
2022/11/28 05:38:39;;;;;;;137.93;47.20;;;;;;;1.43;100.00;100793.16;4201218;28;20707;-66
2022/11/28 05:41:06;;;;;;;140.57;49.03;;;;;;;1.36;100.00;100797.84;4200618;28;21776;-66
2022/11/28 05:43:32;;;;;;;126.47;47.30;;;;;;;1.34;100.00;100799.69;4200417;28;20240;-67
2022/11/28 05:45:59;;;;;;;133.73;49.30;;;;;;;1.31;100.00;100798.97;4206755;28;20240;-66
2022/11/28 05:48:26;;;;;;;120.00;44.97;;;;;;;1.45;100.00;100799.13;4202158;28;20431;-66
2022/11/28 05:50:52;;;;;;;128.30;46.03;;;;;;;1.45;100.00;100794.75;4208597;28;21191;-65
2022/11/28 05:53:19;;;;;;;120.50;46.97;;;;;;;1.44;100.00;100797.44;4181824;28;20238;-65
2022/11/28 05:55:46;;;;;;;129.20;46.30;;;;;;;1.40;100.00;100788.03;4203883;28;20234;-68
2022/11/28 05:58:13;;;;;;;122.13;45.70;;;;;;;1.35;100.00;100790.88;4181607;28;22969;-69
2022/11/28 06:00:39;;;;;;;121.03;43.10;;;;;;;1.46;100.00;100785.13;4211011;28;20229;-65
2022/11/28 06:03:06;;;;;;;127.43;46.10;;;;;;;1.47;100.00;100789.41;4198422;28;20255;-65
2022/11/28 06:05:34;;;;;;;117.03;44.30;;;;;;;1.31;100.00;100789.38;4201430;28;20307;-68
2022/11/28 06:08:10;;;;;;;125.30;45.47;;;;;;;1.25;100.00;100785.25;4199433;28;20445;-66
2022/11/28 06:10:37;;;;;;;123.50;46.17;;;;;;;1.14;100.00;100776.25;4207013;28;20262;-68
2022/11/28 06:13:03;;;;;;;111.93;42.97;;;;;;;1.35;100.00;100790.03;4203772;28;20232;-73
2022/11/28 06:15:30;;;;;;;131.17;46.83;;;;;;;1.24;100.00;100780.97;4203988;28;20324;-69
2022/11/28 06:18:03;;;;;;;128.93;45.07;;;;;;;1.23;100.00;100783.66;4205023;28;20269;-68
2022/11/28 06:20:29;;;;;;;133.77;46.50;;;;;;;1.29;100.00;100785.97;4205898;28;20332;-67
2022/11/28 06:22:56;;;;;;;124.93;47.20;;;;;;;1.12;100.00;100789.41;4201778;28;20233;-67
2022/11/28 06:25:22;;;;;;;121.90;45.40;;;;;;;1.14;100.00;100792.81;4200728;28;20242;-65
2022/11/28 06:27:48;;;;;;;127.30;45.97;;;;;;;1.10;100.00;100788.66;4195618;28;20229;-65
2022/11/28 06:30:15;;;;;;;112.17;42.83;;;;;;;0.94;100.00;100783.31;4194976;28;23026;-66
2022/11/28 06:32:42;;;;;;;122.90;45.00;;;;;;;0.92;100.00;100782.53;4196788;28;20277;-67
2022/11/28 06:35:08;;;;;;;127.37;46.53;;;;;;;0.90;100.00;100788.78;4201150;28;20367;-68
2022/11/28 06:37:35;;;;;;;125.90;46.13;;;;;;;0.91;100.00;100785.22;4197773;28;24114;-67
2022/11/28 06:40:02;;;;;;;124.20;45.23;;;;;;;0.90;100.00;100778.31;4198022;28;20237;-67
2022/11/28 06:42:28;;;;;;;142.60;47.30;;;;;;;1.05;100.00;100782.78;4205107;28;20236;-67
2022/11/28 06:44:55;;;;;;;118.93;43.80;;;;;;;1.19;100.00;100785.56;4205327;28;20232;-67
2022/11/28 06:47:21;;;;;;;121.67;45.70;;;;;;;1.21;100.00;100788.97;4206330;28;20236;-67
2022/11/28 06:49:48;;;;;;;118.50;44.30;;;;;;;1.22;100.00;100789.84;4197390;28;20233;-70
2022/11/28 06:52:15;;;;;;;127.53;46.37;;;;;;;1.19;100.00;100793.41;4199006;28;20393;-66
2022/11/28 06:54:42;;;;;;;125.67;45.07;;;;;;;1.12;100.00;100793.81;4204333;28;20300;-67
2022/11/28 06:57:08;;;;;;;134.40;46.70;;;;;;;1.02;100.00;100798.66;4195888;28;20307;-68
2022/11/28 06:59:35;;;;;;;125.77;44.93;;;;;;;1.04;100.00;100802.06;4210982;28;20722;-68
2022/11/28 07:02:02;;;;;;;118.30;43.23;;;;;;;1.13;100.00;100801.59;4229670;28;23464;-68
2022/11/28 07:04:34;;;;;;;119.23;44.27;;;;;;;1.11;100.00;100807.84;4203678;28;20252;-66
2022/11/28 07:07:00;;;;;;;120.57;44.10;;;;;;;1.09;100.00;100802.69;4202283;28;22152;-67
2022/11/28 07:09:27;;;;;;;129.20;45.13;;;;;;;1.08;100.00;100803.63;4208445;28;20311;-67
2022/11/28 07:11:54;;;;;;;129.57;45.80;;;;;;;0.89;100.00;100802.78;4214254;28;20556;-67
2022/11/28 07:14:20;;;;;;;128.40;46.70;;;;;;;0.88;100.00;100803.72;4223398;28;20301;-69
2022/11/28 07:16:48;;;;;;;149.17;51.90;;;;;;;0.78;100.00;100804.16;4219927;28;20501;-64
2022/11/28 07:19:15;;;;;;;152.73;49.50;;;;;;;0.70;100.00;100795.81;4226388;28;20235;-67
2022/11/28 07:21:42;;;;;;;140.30;49.40;;;;;;;0.70;100.00;100793.19;4254740;28;20239;-67
2022/11/28 07:24:08;;;;;;;144.00;49.67;;;;;;;0.71;100.00;100789.66;4221195;28;21063;-64
2022/11/28 07:26:36;;;;;;;133.10;47.40;;;;;;;0.75;100.00;100788.59;4199923;28;20246;-66
2022/11/28 07:29:05;;;;;;;155.00;52.30;;;;;;;0.78;100.00;100790.22;4239730;28;20236;-69
2022/11/28 07:31:32;;;;;;;146.13;50.77;;;;;;;0.81;100.00;100790.91;4227463;28;20225;-68
2022/11/28 07:34:02;;;;;;;144.73;55.63;;;;;;;0.87;100.00;100791.53;4209649;28;20311;-66
2022/11/28 07:36:29;;;;;;;143.03;53.30;;;;;;;0.95;100.00;100797.25;4216473;28;20618;-65
2022/11/28 07:39:00;;;;;;;127.93;46.80;;;;;;;1.00;100.00;100796.09;4210889;28;23988;-64
2022/11/28 07:41:27;;;;;;;133.07;47.43;;;;;;;0.95;100.00;100787.63;4212744;28;20631;-69
2022/11/28 07:43:56;;;;;;;131.63;46.37;;;;;;;0.97;100.00;100791.03;4212827;28;20258;-66
2022/11/28 07:46:23;;;;;;;136.00;46.60;;;;;;;1.00;100.00;100790.03;4198088;28;21014;-66
2022/11/28 07:48:50;;;;;;;130.90;48.17;;;;;;;0.99;100.00;100793.56;4206646;28;20313;-65
2022/11/28 07:51:19;;;;;;;131.33;47.47;;;;;;;1.20;100.00;100792.50;4192881;28;20232;-65
2022/11/28 07:53:46;;;;;;;127.43;47.50;;;;;;;1.23;100.00;100787.09;4206622;28;20386;-64
2022/11/28 07:56:16;;;;;;;134.40;48.93;;;;;;;1.26;100.00;100797.47;4204472;28;20421;-64
2022/11/28 07:58:44;;;;;;;130.30;46.67;;;;;;;1.26;100.00;100796.59;4206775;28;23945;-63
2022/11/28 08:01:23;;;;;;;127.53;44.60;;;;;;;1.18;100.00;100796.13;4225109;28;20227;-64
2022/11/28 08:03:51;;;;;;;109.33;42.93;;;;;;;1.22;100.00;100792.44;4207468;28;20974;-67
2022/11/28 08:06:20;;;;;;;112.10;41.80;;;;;;;1.38;100.00;100798.63;4211846;28;20736;-67
2022/11/28 08:08:47;;;;;;;118.67;43.50;;;;;;;1.46;100.00;100796.44;4226798;28;20441;-68
2022/11/28 08:11:15;;;;;;;124.50;43.10;;;;;;;1.47;100.00;100799.91;4203198;28;22473;-66
2022/11/28 08:13:42;;;;;;;114.73;40.57;;;;;;;1.65;100.00;100798.13;4206534;28;21159;-67
2022/11/28 08:16:12;;;;;;;111.23;39.90;;;;;;;1.71;100.00;100794.31;4212274;28;20232;-66
2022/11/28 08:18:39;;;;;;;112.67;40.57;;;;;;;1.72;100.00;100794.25;4219970;28;23741;-66
2022/11/28 08:21:12;;;;;;;103.03;39.00;;;;;;;1.73;100.00;100788.06;4207031;28;21239;-65
2022/11/28 08:23:39;;;;;;;101.90;39.40;;;;;;;1.80;100.00;100792.09;4203560;28;25773;-68
2022/11/28 08:26:08;;;;;;;102.30;38.53;;;;;;;1.53;100.00;100797.00;4211823;28;20902;-64
2022/11/28 08:28:35;;;;;;;116.13;41.80;;;;;;;1.37;100.00;100794.28;4222525;28;20264;-64
2022/11/28 08:31:13;;;;;;;109.73;40.90;;;;;;;1.23;100.00;100783.66;4201953;28;20239;-66
2022/11/28 08:33:40;;;;;;;121.43;42.33;;;;;;;1.32;100.00;100788.44;4206781;28;20224;-65
2022/11/28 08:36:08;;;;;;;113.80;40.00;;;;;;;1.27;100.00;100787.81;4201948;28;20241;-65
2022/11/28 08:38:35;;;;;;;118.67;41.00;;;;;;;1.39;100.00;100786.34;4201495;28;20236;-63
2022/11/28 08:41:04;;;;;;;104.87;38.77;;;;;;;1.40;100.00;100783.63;4201070;28;21683;-68
2022/11/28 08:43:33;;;;;;;102.03;37.77;;;;;;;1.40;100.00;100790.66;4202714;28;20247;-65
2022/11/28 08:46:00;;;;;;;101.97;39.57;;;;;;;1.43;100.00;100780.88;4184539;28;20660;-68
2022/11/28 08:48:27;;;;;;;113.70;38.93;;;;;;;1.63;100.00;100790.34;4202398;28;20232;-65
2022/11/28 08:50:53;;;;;;;93.57;35.97;;;;;;;1.76;100.00;100787.09;4210341;28;20244;-69
2022/11/28 08:53:20;;;;;;;101.23;38.03;;;;;;;1.86;100.00;100793.53;4207799;28;22297;-64
2022/11/28 08:55:47;;;;;;;97.73;38.07;;;;;;;1.83;100.00;100791.09;4206480;28;21911;-65
2022/11/28 08:58:14;;;;;;;97.80;36.07;;;;;;;1.91;100.00;100788.91;4207075;28;22432;-66
2022/11/28 09:00:43;;;;;;;100.97;36.43;;;;;;;1.96;100.00;100789.50;4204121;28;20295;-69
2022/11/28 09:03:14;;;;;;;99.47;34.67;;;;;;;2.23;100.00;100788.97;4210886;28;20254;-68
2022/11/28 09:05:41;;;;;;;101.40;35.53;;;;;;;2.14;100.00;100792.94;4217029;28;20243;-68
2022/11/28 09:08:08;;;;;;;97.17;35.93;;;;;;;2.17;100.00;100784.03;4213350;28;20678;-65
2022/11/28 09:10:39;;;;;;;90.60;33.60;;;;;;;2.08;100.00;100786.25;4215782;28;20491;-64
2022/11/28 09:13:06;;;;;;;86.63;33.37;;;;;;;2.16;100.00;100780.56;4335160;28;20231;-66
2022/11/28 09:15:33;;;;;;;82.70;33.40;;;;;;;2.28;100.00;100777.28;4253296;28;20283;-68
2022/11/28 09:18:00;;;;;;;89.73;33.73;;;;;;;2.34;100.00;100773.44;4205504;28;23559;-66
2022/11/28 09:20:27;;;;;;;88.83;33.30;;;;;;;2.35;100.00;100775.16;4204077;28;20245;-64
2022/11/28 09:22:53;;;;;;;91.07;34.67;;;;;;;2.65;100.00;100775.25;4234168;28;20290;-65
2022/11/28 09:25:20;;;;;;;80.90;31.50;;;;;;;2.99;100.00;100767.22;4238382;28;22126;-65
2022/11/28 09:27:46;;;;;;;87.83;32.63;;;;;;;3.75;100.00;100775.03;4197913;28;20266;-66
2022/11/28 09:30:13;;;;;;;78.90;31.00;;;;;;;4.60;100.00;100774.09;4223930;28;20265;-65
2022/11/28 09:32:40;;;;;;;73.43;28.90;;;;;;;4.47;97.53;100773.16;4210203;28;21792;-66
2022/11/28 09:35:07;;;;;;;72.20;28.70;;;;;;;4.01;97.01;100768.16;4211393;28;23010;-66
2022/11/28 09:37:34;;;;;;;71.27;28.87;;;;;;;3.61;99.84;100769.75;4211421;28;20553;-65
2022/11/28 09:40:01;;;;;;;70.33;27.77;;;;;;;3.61;100.00;100764.50;4199924;28;20287;-68
2022/11/28 09:42:42;;;;;;;73.83;28.33;;;;;;;3.69;100.00;100768.34;4219682;28;20317;-67
2022/11/28 09:45:20;;;;;;;68.03;28.10;;;;;;;3.60;100.00;100768.88;4226852;28;20433;-65
2022/11/28 09:47:55;;;;;;;70.00;27.17;;;;;;;3.43;100.00;100755.91;4219846;28;20393;-65
2022/11/28 09:50:29;;;;;;;63.60;26.20;;;;;;;3.48;100.00;100759.09;4213280;28;20238;-68
2022/11/28 09:53:08;;;;;;;67.50;27.87;;;;;;;3.49;100.00;100760.78;4187608;28;21175;-67
2022/11/28 09:55:52;;;;;;;72.83;28.13;;;;;;;3.60;100.00;100763.63;4206313;28;20229;-64
2022/11/28 09:58:38;;;;;;;71.80;28.27;;;;;;;3.61;100.00;100751.34;4195787;28;20360;-65
2022/11/28 10:01:17;;;;;;;68.97;28.93;;;;;;;3.30;100.00;100746.13;4205160;28;21499;-65
2022/11/28 10:03:54;;;;;;;73.40;28.67;;;;;;;3.23;100.00;100749.16;4199241;28;21439;-65
2022/11/28 10:06:25;;;;;;;74.17;28.87;;;;;;;3.11;100.00;100740.22;4220797;28;22856;-65
2022/11/28 10:09:01;;;;;;;73.27;29.90;;;;;;;2.94;100.00;100749.09;4224392;28;20227;-66
2022/11/28 10:11:55;;;;;;;67.97;29.23;;;;;;;2.91;100.00;100739.59;4232372;28;21164;-65
2022/11/28 10:14:55;;;;;;;73.43;29.33;;;;;;;3.10;100.00;100736.75;4211295;28;20661;-64
2022/11/28 10:17:42;;;;;;;68.37;27.37;;;;;;;2.92;100.00;100730.78;4211293;28;23132;-65
2022/11/28 10:20:18;;;;;;;71.87;28.33;;;;;;;2.70;100.00;100736.41;4212445;28;20236;-66
2022/11/28 10:23:04;;;;;;;74.93;28.37;;;;;;;2.52;100.00;100727.78;4199708;28;20254;-66
2022/11/28 10:25:44;;;;;;;73.40;29.63;;;;;;;2.61;100.00;100730.84;4217806;28;20239;-65
2022/11/28 10:28:16;;;;;;;71.57;28.47;;;;;;;2.56;100.00;100730.25;4205770;28;21147;-68
2022/11/28 10:30:46;;;;;;;70.73;28.63;;;;;;;2.66;100.00;100720.91;4210402;28;20307;-68
2022/11/28 10:33:43;;;;;;;80.47;30.87;;;;;;;2.49;100.00;100727.97;4208262;28;20338;-68
2022/11/28 10:36:15;;;;;;;75.67;29.67;;;;;;;2.56;100.00;100717.97;4214486;28;20398;-65
2022/11/28 10:38:42;;;;;;;70.77;29.87;;;;;;;2.57;100.00;100714.41;4196639;28;20321;-65
2022/11/28 10:41:17;;;;;;;65.73;27.63;;;;;;;2.60;100.00;100724.75;4210328;28;20244;-65
2022/11/28 10:43:50;;;;;;;69.97;27.73;;;;;;;2.58;100.00;100716.09;4209048;28;20448;-65
2022/11/28 10:46:23;;;;;;;72.23;27.63;;;;;;;2.48;100.00;100714.91;4202409;28;21894;-65
2022/11/28 10:49:21;;;;;;;68.83;27.47;;;;;;;2.45;100.00;100715.94;4212021;28;20674;-68
2022/11/28 10:52:06;;;;;;;68.30;27.60;;;;;;;2.42;100.00;100716.13;4211162;28;20252;-66
2022/11/28 10:55:11;;;;;;;74.80;28.80;;;;;;;2.30;100.00;100707.16;4205599;28;20682;-67
2022/11/28 10:57:54;;;;;;;72.27;27.80;;;;;;;2.31;100.00;100695.69;4211226;28;20235;-66
2022/11/28 11:00:21;;;;;;;69.10;27.20;;;;;;;2.28;100.00;100713.41;4212573;28;20303;-67
2022/11/28 11:02:53;;;;;;;74.73;28.23;;;;;;;2.25;100.00;100703.09;4210893;28;21176;-67
2022/11/28 11:05:24;;;;;;;63.57;26.10;;;;;;;2.38;100.00;100704.09;4192994;28;20327;-67
2022/11/28 11:07:53;;;;;;;68.83;26.97;;;;;;;2.51;100.00;100707.72;4206292;28;20277;-66
2022/11/28 11:10:34;;;;;;;64.60;25.87;;;;;;;2.54;100.00;100711.94;4199800;28;20666;-65
2022/11/28 11:13:12;;;;;;;66.23;26.20;;;;;;;2.52;100.00;100704.16;4189507;28;22337;-40
2022/11/28 11:15:38;;;;;;;75.17;27.30;;;;;;;2.75;100.00;100702.00;4209509;28;20321;-60
2022/11/28 11:18:21;;;;;;;69.13;25.60;;;;;;;2.81;100.00;100706.91;4201780;28;20240;-66
2022/11/28 11:20:48;;;;;;;57.43;24.17;;;;;;;2.57;100.00;100705.69;4214066;28;20235;-69
2022/11/28 11:23:20;;;;;;;64.03;25.87;;;;;;;2.49;100.00;100712.22;4209794;28;20316;-69
2022/11/28 11:25:55;;;;;;;71.23;25.17;;;;;;;2.43;100.00;100701.19;4209211;28;21292;-68